createdAt,value
2023-03-02T00:00:51.694Z,50.70
2023-03-02T00:03:18.446Z,51.40
2023-03-02T00:05:46.146Z,50.60
2023-03-02T00:08:14.456Z,50.70
2023-03-02T00:10:41.221Z,50.60
2023-03-02T00:13:08.009Z,50.70
2023-03-02T00:15:34.659Z,50.60
2023-03-02T00:18:02.672Z,50.60
2023-03-02T00:20:29.358Z,50.60
2023-03-02T00:22:56.065Z,50.60
2023-03-02T00:25:22.787Z,50.60
2023-03-02T00:27:49.453Z,50.50
2023-03-02T00:30:17.130Z,50.50
2023-03-02T00:32:43.935Z,50.60
2023-03-02T00:35:12.243Z,50.60
2023-03-02T00:37:39.107Z,50.50
2023-03-02T00:40:07.898Z,50.40
2023-03-02T00:42:34.600Z,50.50
2023-03-02T00:45:01.353Z,50.40
2023-03-02T00:47:28.432Z,50.50
2023-03-02T00:49:55.426Z,50.40
2023-03-02T00:52:23.589Z,50.40
2023-03-02T00:54:50.421Z,50.40
2023-03-02T00:57:17.231Z,50.40
2023-03-02T00:59:43.942Z,50.50
2023-03-02T01:02:10.648Z,50.50
2023-03-02T01:04:39.576Z,50.50
2023-03-02T01:07:08.498Z,50.30
2023-03-02T01:09:37.173Z,50.40
2023-03-02T01:12:04.809Z,50.30
2023-03-02T01:14:31.648Z,50.30
2023-03-02T01:16:58.297Z,50.30
2023-03-02T01:19:24.956Z,50.30
2023-03-02T01:21:51.647Z,50.40
2023-03-02T01:24:18.321Z,50.30
2023-03-02T01:26:46.413Z,50.20
2023-03-02T01:29:14.053Z,50.20
2023-03-02T01:31:40.847Z,50.30
2023-03-02T01:34:07.782Z,50.30
2023-03-02T01:36:35.021Z,50.20
2023-03-02T01:39:01.996Z,50.30
2023-03-02T01:41:28.753Z,50.30
2023-03-02T01:43:56.817Z,50.30
2023-03-02T01:46:27.023Z,50.30
2023-03-02T01:48:58.695Z,50.30
2023-03-02T01:51:27.741Z,50.30
2023-03-02T01:54:00.035Z,50.10
2023-03-02T01:56:31.239Z,50.20
2023-03-02T01:59:05.602Z,50.20
2023-03-02T02:01:36.124Z,50.20
2023-03-02T02:04:03.535Z,50.10
2023-03-02T02:06:37.358Z,50.10
2023-03-02T02:09:05.074Z,50.10
2023-03-02T02:11:31.846Z,50.20
2023-03-02T02:17:21.928Z,50.10
2023-03-02T02:20:01.750Z,50.20
2023-03-02T02:22:40.380Z,50.20
2023-03-02T02:25:16.532Z,50.20
2023-03-02T02:27:45.659Z,50.20
2023-03-02T02:30:14.631Z,50.20
2023-03-02T02:32:42.777Z,50.20
2023-03-02T02:35:14.525Z,50.10
2023-03-02T02:37:44.550Z,50.10
2023-03-02T02:40:16.424Z,50.10
2023-03-02T02:42:47.732Z,50.10
2023-03-02T02:45:20.158Z,50.10
2023-03-02T02:47:47.354Z,50.00
2023-03-02T02:50:19.246Z,50.00
2023-03-02T02:52:49.913Z,50.00
2023-03-02T02:55:21.302Z,50.00
2023-03-02T02:57:51.024Z,50.00
2023-03-02T03:00:19.964Z,50.00
2023-03-02T03:02:51.422Z,50.00
2023-03-02T03:05:18.212Z,50.00
2023-03-02T03:07:45.369Z,50.00
2023-03-02T03:10:16.078Z,50.00
2023-03-02T03:12:43.290Z,50.00
2023-03-02T03:15:12.222Z,50.00
2023-03-02T03:17:38.946Z,49.90
2023-03-02T03:20:07.049Z,49.90
2023-03-02T03:22:35.840Z,50.00
2023-03-02T03:25:02.682Z,49.90
2023-03-02T03:27:29.472Z,49.80
2023-03-02T03:29:56.146Z,49.90
2023-03-02T03:32:24.314Z,49.90
2023-03-02T03:34:51.087Z,49.80
2023-03-02T03:37:19.250Z,49.80
2023-03-02T03:39:46.338Z,49.80
2023-03-02T03:42:13.569Z,49.90
2023-03-02T03:44:40.316Z,49.90
2023-03-02T03:47:06.994Z,49.90
2023-03-02T03:49:35.044Z,49.80
2023-03-02T03:52:01.797Z,49.80
2023-03-02T03:54:28.522Z,50.50
2023-03-02T03:56:55.455Z,49.80
2023-03-02T03:59:24.018Z,49.80
2023-03-02T04:01:52.985Z,49.80
2023-03-02T04:04:22.434Z,49.80
2023-03-02T04:06:51.004Z,50.40
2023-03-02T04:09:17.705Z,49.80
2023-03-02T04:11:46.915Z,49.80
2023-03-02T04:14:14.649Z,49.80
2023-03-02T04:16:42.350Z,49.80
2023-03-02T04:19:09.808Z,49.60
2023-03-02T04:21:37.447Z,49.80
2023-03-02T04:24:05.836Z,49.80
2023-03-02T04:26:33.274Z,49.70
2023-03-02T04:29:00.310Z,49.70
2023-03-02T04:31:27.009Z,49.80
2023-03-02T04:33:53.828Z,49.80
2023-03-02T04:36:20.499Z,49.80
2023-03-02T04:38:47.574Z,49.70
2023-03-02T04:41:15.629Z,49.80
2023-03-02T04:43:42.351Z,49.80
2023-03-02T04:46:11.690Z,49.60
2023-03-02T04:48:38.349Z,49.70
2023-03-02T04:51:05.389Z,49.80
2023-03-02T04:53:32.085Z,49.90
2023-03-02T04:55:58.893Z,49.90
2023-03-02T04:58:26.942Z,50.10
2023-03-02T05:00:53.631Z,50.30
2023-03-02T05:03:20.276Z,50.40
2023-03-02T05:05:46.948Z,50.70
2023-03-02T05:08:13.616Z,50.90
2023-03-02T05:10:40.277Z,51.10
2023-03-02T05:13:06.960Z,51.20
2023-03-02T05:15:36.772Z,51.50
2023-03-02T05:18:04.218Z,51.60
2023-03-02T05:20:31.089Z,51.80
2023-03-02T05:22:59.860Z,52.20
2023-03-02T05:25:28.718Z,53.20
2023-03-02T05:27:55.811Z,53.70
2023-03-02T05:30:23.271Z,54.60
2023-03-02T05:32:52.531Z,54.80
2023-03-02T05:35:20.122Z,54.80
2023-03-02T05:37:47.122Z,55.00
2023-03-02T05:40:15.904Z,54.60
2023-03-02T05:42:43.086Z,54.70
2023-03-02T05:45:19.771Z,55.30
2023-03-02T05:47:46.426Z,54.50
2023-03-02T05:50:15.049Z,53.90
2023-03-02T05:52:41.714Z,54.40
2023-03-02T05:55:09.243Z,53.60
2023-03-02T05:57:36.042Z,53.90
2023-03-02T06:00:03.395Z,54.40
2023-03-02T06:02:30.085Z,54.80
2023-03-02T06:04:56.751Z,55.30
2023-03-02T06:07:24.797Z,55.60
2023-03-02T06:09:51.558Z,55.70
2023-03-02T06:12:18.273Z,55.30
2023-03-02T06:14:44.928Z,54.70
2023-03-02T06:17:11.599Z,54.20
2023-03-02T06:19:38.344Z,54.50
2023-03-02T06:22:05.096Z,54.60
2023-03-02T06:24:33.269Z,54.10
2023-03-02T06:27:00.201Z,55.20
2023-03-02T06:29:26.951Z,55.80
2023-03-02T06:31:53.695Z,55.50
2023-03-02T06:34:20.448Z,55.90
2023-03-02T06:36:47.076Z,54.60
2023-03-02T06:39:13.814Z,54.70
2023-03-02T06:41:42.240Z,55.50
2023-03-02T06:44:09.263Z,55.70
2023-03-02T06:46:36.126Z,55.60
2023-03-02T06:49:03.049Z,56.00
2023-03-02T06:51:29.899Z,56.10
2023-03-02T06:53:57.364Z,56.10
2023-03-02T06:56:24.225Z,55.90
2023-03-02T06:58:52.837Z,55.90
2023-03-02T07:01:19.887Z,56.00
2023-03-02T07:03:46.697Z,56.50
2023-03-02T07:06:13.881Z,56.80
2023-03-02T07:08:40.807Z,56.40
2023-03-02T07:11:08.693Z,56.00
2023-03-02T07:13:35.386Z,56.20
2023-03-02T07:16:07.880Z,55.90
2023-03-02T07:18:34.594Z,55.90
2023-03-02T07:21:01.331Z,55.10
2023-03-02T07:23:28.127Z,55.70
2023-03-02T07:25:55.570Z,56.30
2023-03-02T07:28:22.447Z,56.50
2023-03-02T07:30:49.195Z,55.80
2023-03-02T07:33:17.346Z,55.80
2023-03-02T07:35:44.112Z,56.10
2023-03-02T07:38:10.943Z,56.30
2023-03-02T07:40:40.738Z,56.20
2023-03-02T07:43:07.808Z,55.50
2023-03-02T07:45:34.522Z,55.20
2023-03-02T07:48:01.268Z,54.60
2023-03-02T07:50:29.509Z,54.00
2023-03-02T07:52:57.608Z,54.10
2023-03-02T07:55:25.352Z,53.70
2023-03-02T07:57:52.171Z,53.70
2023-03-02T08:00:20.230Z,54.80
2023-03-02T08:02:47.249Z,54.70
2023-03-02T08:05:14.424Z,54.90
2023-03-02T08:07:42.502Z,54.00
2023-03-02T08:10:10.835Z,53.70
2023-03-02T08:12:37.551Z,53.60
2023-03-02T08:15:05.291Z,53.70
2023-03-02T08:17:32.146Z,54.20
2023-03-02T08:19:58.840Z,54.70
2023-03-02T08:22:25.633Z,54.00
2023-03-02T08:24:53.674Z,54.10
2023-03-02T08:27:20.421Z,53.50
2023-03-02T08:29:47.196Z,53.30
2023-03-02T08:32:14.102Z,53.00
2023-03-02T08:34:40.902Z,53.10
2023-03-02T08:37:07.644Z,53.20
2023-03-02T08:39:34.419Z,53.20
2023-03-02T08:42:02.405Z,53.40
2023-03-02T08:44:29.073Z,53.20
2023-03-02T08:46:55.736Z,53.60
2023-03-02T08:49:22.419Z,54.70
2023-03-02T08:51:49.071Z,54.70
2023-03-02T08:54:15.816Z,54.00
2023-03-02T08:56:42.487Z,54.90
2023-03-02T08:59:12.915Z,55.30
2023-03-02T09:01:40.567Z,54.80
2023-03-02T09:04:09.216Z,54.80
2023-03-02T09:06:37.970Z,54.00
2023-03-02T09:09:05.696Z,53.70
2023-03-02T09:11:33.432Z,53.50
2023-03-02T09:14:00.351Z,55.00
2023-03-02T09:16:28.459Z,55.60
2023-03-02T09:18:55.416Z,56.20
2023-03-02T09:21:22.360Z,56.20
2023-03-02T09:23:49.403Z,56.20
2023-03-02T09:26:16.139Z,56.40
2023-03-02T09:28:42.820Z,56.20
2023-03-02T09:31:09.503Z,56.40
2023-03-02T09:33:37.776Z,56.30
2023-03-02T09:36:09.411Z,55.00
2023-03-02T09:38:36.090Z,55.00
2023-03-02T09:41:24.429Z,54.70
2023-03-02T09:44:12.151Z,54.80
2023-03-02T09:46:44.038Z,53.80
2023-03-02T09:49:20.820Z,53.80
2023-03-02T09:51:56.945Z,53.80
2023-03-02T09:54:24.004Z,53.70
2023-03-02T09:56:53.838Z,54.20
2023-03-02T09:59:24.861Z,54.80
2023-03-02T10:01:56.115Z,55.20
2023-03-02T10:04:26.237Z,54.60
2023-03-02T10:06:57.875Z,54.10
2023-03-02T10:09:25.302Z,53.70
2023-03-02T10:12:15.938Z,53.80
2023-03-02T10:14:48.942Z,53.80
2023-03-02T10:17:30.938Z,53.60
2023-03-02T10:20:02.610Z,53.60
2023-03-02T10:22:33.448Z,53.70
2023-03-02T10:25:13.206Z,54.00
2023-03-02T10:27:42.761Z,54.20
2023-03-02T10:30:19.249Z,53.90
2023-03-02T10:32:49.364Z,55.00
2023-03-02T10:35:19.686Z,54.10
2023-03-02T10:37:47.033Z,53.80
2023-03-02T10:40:28.333Z,53.40
2023-03-02T10:42:57.525Z,53.70
2023-03-02T10:45:27.930Z,53.80
2023-03-02T10:48:01.935Z,53.60
2023-03-02T10:50:30.306Z,53.70
2023-03-02T10:53:01.015Z,54.00
2023-03-02T10:55:29.242Z,53.90
2023-03-02T10:58:02.237Z,53.80
2023-03-02T11:00:30.766Z,53.60
2023-03-02T11:02:59.643Z,53.70
2023-03-02T11:05:34.107Z,53.90
2023-03-02T11:08:02.544Z,53.80
2023-03-02T11:10:31.423Z,54.70
2023-03-02T11:12:59.599Z,54.90
2023-03-02T11:15:29.764Z,54.90
2023-03-02T11:18:07.756Z,55.20
2023-03-02T11:20:38.544Z,55.30
2023-03-02T11:23:20.800Z,55.00
2023-03-02T11:25:52.321Z,54.80
2023-03-02T11:28:31.254Z,55.10
2023-03-02T11:30:59.388Z,55.50
2023-03-02T11:33:30.522Z,55.60
2023-03-02T11:36:04.613Z,55.90
2023-03-02T11:38:38.211Z,55.90
2023-03-02T11:41:12.021Z,55.80
2023-03-02T11:43:38.760Z,55.80
2023-03-02T11:46:21.730Z,55.80
2023-03-02T11:48:52.767Z,55.80
2023-03-02T11:51:23.868Z,56.10
2023-03-02T11:53:55.691Z,55.30
2023-03-02T11:56:22.940Z,54.50
2023-03-02T11:58:54.827Z,54.20
2023-03-02T12:01:24.129Z,55.40
2023-03-02T12:03:51.533Z,55.70
2023-03-02T12:06:36.394Z,55.60
2023-03-02T12:09:28.715Z,55.70
2023-03-02T12:11:58.538Z,55.80
2023-03-02T12:14:36.100Z,54.70
2023-03-02T12:17:21.941Z,54.50
2023-03-02T12:19:50.433Z,54.10
2023-03-02T12:22:28.160Z,53.70
2023-03-02T12:25:02.404Z,53.80
2023-03-02T12:27:35.328Z,53.60
2023-03-02T12:30:19.882Z,53.80
2023-03-02T12:33:03.704Z,54.50
2023-03-02T12:35:32.822Z,53.90
2023-03-02T12:38:04.678Z,54.10
2023-03-02T12:40:48.590Z,54.80
2023-03-02T12:43:26.139Z,54.00
2023-03-02T12:46:24.000Z,53.60
2023-03-02T12:49:06.684Z,53.50
2023-03-02T12:51:47.088Z,54.40
2023-03-02T12:54:17.086Z,53.60
2023-03-02T12:56:43.889Z,53.60
2023-03-02T12:59:20.644Z,53.70
2023-03-02T13:01:47.286Z,54.10
2023-03-02T13:04:21.606Z,54.60
2023-03-02T13:06:48.399Z,54.50
2023-03-02T13:09:17.067Z,54.00
2023-03-02T13:11:44.443Z,53.70
2023-03-02T13:14:19.904Z,54.40
2023-03-02T13:16:55.682Z,53.80
2023-03-02T13:19:23.061Z,53.60
2023-03-02T13:21:50.249Z,53.60
2023-03-02T13:24:26.880Z,53.70
2023-03-02T13:26:58.509Z,54.30
2023-03-02T13:29:27.718Z,54.30
2023-03-02T13:31:55.126Z,54.00
2023-03-02T13:34:23.406Z,53.70
2023-03-02T13:36:50.453Z,54.30
2023-03-02T13:39:20.609Z,54.00
2023-03-02T13:41:54.898Z,53.60
2023-03-02T13:44:26.432Z,53.70
2023-03-02T13:46:53.381Z,53.70
2023-03-02T13:49:27.768Z,53.70
2023-03-02T13:52:01.615Z,53.80
2023-03-02T13:54:31.287Z,53.70
2023-03-02T13:57:01.644Z,54.10
2023-03-02T13:59:29.344Z,54.10
2023-03-02T14:01:56.024Z,54.00
2023-03-02T14:04:23.651Z,54.10
2023-03-02T14:06:50.590Z,54.20
2023-03-02T14:09:17.305Z,54.20
2023-03-02T14:11:46.614Z,54.40
2023-03-02T14:14:17.476Z,54.40
2023-03-02T14:16:44.172Z,54.50
2023-03-02T14:19:13.007Z,54.40
2023-03-02T14:21:40.058Z,54.40
2023-03-02T14:24:07.359Z,54.50
2023-03-02T14:26:36.113Z,54.70
2023-03-02T14:29:06.981Z,54.50
2023-03-02T14:31:35.517Z,54.70
2023-03-02T14:34:02.548Z,54.70
2023-03-02T14:36:31.811Z,54.70
2023-03-02T14:39:01.568Z,54.50
2023-03-02T14:41:29.334Z,54.40
2023-03-02T14:43:56.143Z,54.30
2023-03-02T14:46:22.941Z,54.30
2023-03-02T14:48:51.037Z,54.20
2023-03-02T14:51:23.491Z,54.20
2023-03-02T14:53:52.608Z,54.20
2023-03-02T14:56:20.820Z,54.20
2023-03-02T14:58:47.521Z,54.30
2023-03-02T15:01:14.231Z,54.20
2023-03-02T15:03:40.965Z,54.10
2023-03-02T15:06:24.713Z,54.20
2023-03-02T15:08:51.427Z,54.10
2023-03-02T15:11:18.132Z,54.30
2023-03-02T15:13:45.818Z,54.40
2023-03-02T15:16:12.775Z,54.30
2023-03-02T15:18:39.734Z,54.30
2023-03-02T15:21:06.732Z,54.30
2023-03-02T15:23:34.837Z,54.30
2023-03-02T15:26:02.907Z,54.30
2023-03-02T15:28:29.762Z,54.20
2023-03-02T15:30:56.455Z,54.10
2023-03-02T15:33:23.159Z,54.10
2023-03-02T15:35:53.750Z,53.90
2023-03-02T15:38:21.902Z,53.90
2023-03-02T15:40:49.985Z,53.90
2023-03-02T15:43:16.654Z,53.90
2023-03-02T15:45:44.934Z,54.00
2023-03-02T15:48:13.563Z,53.70
2023-03-02T15:50:40.370Z,53.70
2023-03-02T15:53:07.152Z,53.70
2023-03-02T15:55:33.826Z,53.60
2023-03-02T15:58:01.817Z,53.60
2023-03-02T16:00:28.489Z,53.50
2023-03-02T16:02:55.236Z,53.40
2023-03-02T16:05:21.944Z,53.40
2023-03-02T16:07:48.595Z,53.40
2023-03-02T16:10:15.393Z,53.50
2023-03-02T16:12:42.170Z,53.40
2023-03-02T16:15:10.913Z,53.40
2023-03-02T16:17:37.594Z,53.40
2023-03-02T16:20:05.092Z,53.40
2023-03-02T16:22:31.787Z,53.30
2023-03-02T16:24:58.450Z,53.30
2023-03-02T16:27:25.183Z,53.30
2023-03-02T16:29:51.866Z,53.30
2023-03-02T16:32:20.429Z,53.30
2023-03-02T16:34:47.212Z,53.40
2023-03-02T16:37:13.957Z,53.30
2023-03-02T16:39:40.657Z,53.30
2023-03-02T16:42:07.312Z,53.20
2023-03-02T16:44:33.960Z,53.20
2023-03-02T16:47:00.626Z,53.20
2023-03-02T16:49:28.611Z,53.10
2023-03-02T16:51:57.484Z,53.00
2023-03-02T16:54:24.809Z,52.90
2023-03-02T16:56:51.476Z,53.00
2023-03-02T16:59:18.141Z,52.90
2023-03-02T17:01:44.995Z,52.80
2023-03-02T17:04:11.830Z,53.50
2023-03-02T17:06:59.596Z,52.80
2023-03-02T17:09:27.016Z,52.80
2023-03-02T17:11:53.695Z,52.90
2023-03-02T17:14:20.330Z,52.80
2023-03-02T17:16:47.061Z,52.90
2023-03-02T17:19:13.715Z,52.80
2023-03-02T17:21:41.799Z,53.00
2023-03-02T17:24:08.606Z,52.80
2023-03-02T17:26:35.619Z,52.80
2023-03-02T17:29:02.354Z,53.00
2023-03-02T17:31:29.127Z,53.00
2023-03-02T17:33:55.782Z,52.90
2023-03-02T17:36:22.470Z,52.80
2023-03-02T17:38:50.512Z,52.90
2023-03-02T17:41:17.187Z,53.00
2023-03-02T17:43:43.882Z,53.00
2023-03-02T17:46:13.108Z,52.80
2023-03-02T17:48:40.642Z,52.70
2023-03-02T17:51:07.397Z,52.80
2023-03-02T17:53:34.120Z,52.70
2023-03-02T17:56:02.234Z,53.00
2023-03-02T17:58:39.366Z,53.30
2023-03-02T18:01:12.041Z,53.70
2023-03-02T18:03:38.912Z,54.00
2023-03-02T18:06:06.449Z,54.10
2023-03-02T18:08:33.176Z,54.10
2023-03-02T18:11:00.217Z,53.90
2023-03-02T18:13:28.195Z,54.00
2023-03-02T18:15:55.027Z,54.00
2023-03-02T18:18:21.905Z,54.00
2023-03-02T18:20:48.602Z,54.20
2023-03-02T18:23:15.286Z,54.20
2023-03-02T18:25:42.034Z,54.40
2023-03-02T18:28:08.772Z,55.20
2023-03-02T18:30:36.780Z,54.40
2023-03-02T18:33:03.593Z,54.70
2023-03-02T18:35:30.382Z,54.90
2023-03-02T18:37:57.169Z,54.60
2023-03-02T18:40:23.818Z,54.10
2023-03-02T18:42:50.531Z,53.70
2023-03-02T18:45:22.115Z,53.30
2023-03-02T18:47:50.154Z,53.30
2023-03-02T18:50:17.250Z,53.40
2023-03-02T18:52:43.906Z,53.70
2023-03-02T18:55:10.840Z,53.60
2023-03-02T18:57:38.150Z,53.60
2023-03-02T19:00:06.782Z,53.60
2023-03-02T19:02:34.303Z,53.60
2023-03-02T19:05:02.364Z,53.60
2023-03-02T19:07:29.034Z,53.50
2023-03-02T19:09:55.708Z,53.50
2023-03-02T19:12:22.343Z,53.70
2023-03-02T19:14:49.036Z,53.50
2023-03-02T19:17:15.788Z,53.60
2023-03-02T19:19:43.743Z,53.50
2023-03-02T19:22:11.966Z,53.50
2023-03-02T19:24:38.662Z,53.50
2023-03-02T19:27:05.339Z,53.40
2023-03-02T19:29:31.976Z,53.40
2023-03-02T19:31:58.783Z,53.40
2023-03-02T19:34:26.267Z,53.40
2023-03-02T19:36:52.923Z,53.40
2023-03-02T19:39:20.906Z,53.50
2023-03-02T19:41:47.607Z,53.40
2023-03-02T19:44:14.334Z,53.30
2023-03-02T19:46:41.011Z,53.40
2023-03-02T19:49:07.848Z,53.40
2023-03-02T19:51:34.545Z,53.40
2023-03-02T19:54:03.705Z,53.40
2023-03-02T19:56:32.100Z,53.50
2023-03-02T19:58:59.309Z,53.50
2023-03-02T20:01:26.114Z,53.60
2023-03-02T20:03:53.648Z,53.50
2023-03-02T20:06:21.655Z,53.50
2023-03-02T20:08:48.889Z,53.90
2023-03-02T20:11:16.341Z,54.10
2023-03-02T20:13:44.497Z,54.50
2023-03-02T20:16:16.531Z,54.50
2023-03-02T20:18:43.245Z,54.60
2023-03-02T20:21:09.963Z,54.70
2023-03-02T20:23:36.656Z,54.70
2023-03-02T20:26:04.485Z,54.90
2023-03-02T20:28:31.140Z,54.70
2023-03-02T20:31:01.801Z,54.40
2023-03-02T20:33:32.661Z,54.90
2023-03-02T20:36:00.606Z,55.10
2023-03-02T20:38:31.057Z,55.20
2023-03-02T20:40:58.053Z,55.20
2023-03-02T20:43:25.379Z,55.50
2023-03-02T20:45:52.130Z,55.90
2023-03-02T20:48:20.179Z,55.80
2023-03-02T20:50:46.965Z,55.80
2023-03-02T20:53:14.426Z,55.90
2023-03-02T20:55:41.224Z,55.90
2023-03-02T20:58:08.638Z,56.20
2023-03-02T21:00:37.228Z,55.90
2023-03-02T21:03:04.582Z,56.10
2023-03-02T21:05:34.976Z,56.00
2023-03-02T21:08:01.982Z,56.10
2023-03-02T21:10:31.661Z,55.80
2023-03-02T21:12:58.703Z,56.00
2023-03-02T21:15:26.285Z,56.00
2023-03-02T21:17:53.541Z,56.10
2023-03-02T21:20:20.407Z,56.20
2023-03-02T21:22:48.442Z,56.10
2023-03-02T21:25:15.474Z,55.30
2023-03-02T21:27:42.483Z,54.60
2023-03-02T21:30:12.708Z,54.40
2023-03-02T21:32:39.367Z,54.50
2023-03-02T21:35:06.642Z,55.20
2023-03-02T21:37:33.610Z,54.80
2023-03-02T21:40:01.629Z,54.60
2023-03-02T21:42:28.393Z,54.80
2023-03-02T21:44:55.077Z,54.90
2023-03-02T21:47:21.762Z,55.00
2023-03-02T21:49:48.423Z,55.50
2023-03-02T21:52:15.194Z,55.60
2023-03-02T21:54:41.815Z,55.70
2023-03-02T21:57:12.803Z,55.90
2023-03-02T21:59:39.493Z,56.20
2023-03-02T22:02:06.202Z,56.20
2023-03-02T22:04:35.273Z,55.80
2023-03-02T22:07:02.224Z,56.00
2023-03-02T22:09:28.884Z,56.10
2023-03-02T22:11:55.570Z,55.80
2023-03-02T22:14:24.118Z,55.00
2023-03-02T22:16:50.814Z,54.50
2023-03-02T22:19:25.856Z,54.50
2023-03-02T22:21:54.013Z,54.20
2023-03-02T22:24:23.493Z,54.30
2023-03-02T22:26:56.951Z,54.20
2023-03-02T22:29:26.456Z,54.80
2023-03-02T22:31:55.107Z,55.20
2023-03-02T22:34:25.433Z,55.00
2023-03-02T22:36:54.870Z,54.30
2023-03-02T22:39:28.852Z,54.20
2023-03-02T22:42:00.587Z,54.50
2023-03-02T22:44:28.588Z,54.10
2023-03-02T22:46:56.163Z,54.00
2023-03-02T22:49:22.849Z,53.80
2023-03-02T22:51:49.513Z,53.80
2023-03-02T22:54:22.753Z,53.70
2023-03-02T22:56:51.085Z,53.70
2023-03-02T22:59:21.846Z,53.70
2023-03-02T23:01:50.851Z,53.60
2023-03-02T23:04:20.624Z,53.80
2023-03-02T23:06:49.985Z,54.00
2023-03-02T23:09:19.546Z,54.10
2023-03-02T23:11:46.487Z,54.40
2023-03-02T23:14:20.563Z,54.50
2023-03-02T23:16:52.735Z,54.80
2023-03-02T23:19:19.468Z,54.50
2023-03-02T23:21:48.209Z,55.10
2023-03-02T23:24:15.241Z,55.40
2023-03-02T23:26:41.897Z,54.60
2023-03-02T23:29:08.593Z,54.70
2023-03-02T23:31:35.349Z,54.30
2023-03-02T23:34:03.597Z,54.70
2023-03-02T23:36:30.256Z,55.10
2023-03-02T23:38:56.930Z,55.20
2023-03-02T23:41:23.664Z,54.60
2023-03-02T23:43:50.318Z,54.20
2023-03-02T23:46:17.033Z,54.10
2023-03-02T23:48:43.748Z,54.30
2023-03-02T23:51:11.948Z,54.50
2023-03-02T23:53:38.602Z,54.50
2023-03-02T23:56:06.024Z,54.40
2023-03-02T23:58:32.763Z,54.60
